メインページ
METAR-TAF:

METAR-TAF

空港 :

マル・デル・プラタ, アルゼンチン

緯度: 37-56S, 経度: 057-35W, 海抜: 18m

現時点の気象観測

当レポートは2時間15分前の04:00(UTC)に作成
東/北東の風 5kt
気温 19°C
湿度 100%
気圧 1023 hPa
視程10km以上
1,500メートル以下は雲なし、積乱雲なし

METAR: SAZM 280400Z 07005KT CAVOK 19/19 Q1023

時間: 03:15 (06:15 UTC)

予報

当レポートは1時間15分前の05:00(UTC)に作成
予報は28日の 06時(UTC)から 29日の 06時(UTC)まで有効
東/北東の風 5kt
視程: 6000m
28日の 08時(UTC)から 28日の 11時(UTC)まで徐々に
視程: 4000m
高度1000ftの千切れ雲あり
28日の 12時(UTC)から 28日の 14時(UTC)まで徐々に
北東の風 15kt、最大25ktの突風を伴う
視程10km以上
高度3000ftの雲は散在している

TAF: SAZM 280500Z 2806/2906 07005KT 6000 NSC TX24/2818Z TN17/2809Z BECMG 2808/2811 4000 BR BKN010 BECMG 2812/2814 05015G25KT 9999 SCT030

4,000以上の空港の気象観測と天気予報(METAR報とTAF報)

利用可能な観測所は地図上に黄色い丸と赤い丸で示す。

丸の上にカーソルを重ねると観測所名を参照できる。

次にクリックすると気象観測と天気予報を参照できる。

マップの切り替え:黒色「×」印の緑ボタンをクリックして拡大、「-」印の緑ボタンをクリックして縮小、緑色の三角印をクリックして隣りの地図に切り替え


METAR-TAF: